createdAt,value
2022-10-31T00:00:10.295Z,27.05
2022-10-31T00:00:40.355Z,27.06
2022-10-31T00:01:10.370Z,27.06
2022-10-31T00:01:40.406Z,27.07
2022-10-31T00:02:10.523Z,27.07
2022-10-31T00:02:40.664Z,27.06
2022-10-31T00:03:10.573Z,27.06
2022-10-31T00:03:40.604Z,27.05
2022-10-31T00:04:10.629Z,27.06
2022-10-31T00:04:40.661Z,27.07
2022-10-31T00:05:10.692Z,27.06
2022-10-31T00:05:40.722Z,27.05
2022-10-31T00:06:10.749Z,27.06
2022-10-31T00:06:40.781Z,27.03
2022-10-31T00:07:10.810Z,27.06
2022-10-31T00:07:40.837Z,27.05
2022-10-31T00:08:10.877Z,27.05
2022-10-31T00:08:40.902Z,27.05
2022-10-31T00:09:10.935Z,27.03
2022-10-31T00:09:40.967Z,27.05
2022-10-31T00:10:11.020Z,27.05
2022-10-31T00:10:41.029Z,27.07
2022-10-31T00:11:11.062Z,27.06
2022-10-31T00:11:41.093Z,27.03
2022-10-31T00:12:11.120Z,27.05
2022-10-31T00:12:41.156Z,27.05
2022-10-31T00:13:11.279Z,27.06
2022-10-31T00:13:41.192Z,27.06
2022-10-31T00:14:11.220Z,27.02
2022-10-31T00:14:41.254Z,27.03
2022-10-31T00:15:11.277Z,27.03
2022-10-31T00:15:41.322Z,27.06
2022-10-31T00:16:11.348Z,27.03
2022-10-31T00:16:41.376Z,27.06
2022-10-31T00:17:11.411Z,27.03
2022-10-31T00:17:41.456Z,27.03
2022-10-31T00:18:11.477Z,27.05
2022-10-31T00:18:41.508Z,27.05
2022-10-31T00:19:11.540Z,27.05
2022-10-31T00:19:41.563Z,27.03
2022-10-31T00:20:11.607Z,27.05
2022-10-31T00:20:41.636Z,27.06
2022-10-31T00:21:11.666Z,27.03
2022-10-31T00:21:41.699Z,27.06
2022-10-31T00:22:11.703Z,27.02
2022-10-31T00:22:41.818Z,27.02
2022-10-31T00:23:11.815Z,27.05
2022-10-31T00:23:41.934Z,27.03
2022-10-31T00:24:12.053Z,27.03
2022-10-31T00:24:42.171Z,27.05
2022-10-31T00:25:12.285Z,27.05
2022-10-31T00:25:42.428Z,27.02
2022-10-31T00:26:12.518Z,27.05
2022-10-31T00:26:42.514Z,27.03
2022-10-31T00:27:12.510Z,27.05
2022-10-31T00:27:42.630Z,27.03
2022-10-31T00:28:12.772Z,27.01
2022-10-31T00:28:42.771Z,27.03
2022-10-31T00:29:12.886Z,27.05
2022-10-31T00:29:43.004Z,27.01
2022-10-31T00:30:12.999Z,27.03
2022-10-31T00:30:42.996Z,27.05
2022-10-31T00:31:13.113Z,27.03
2022-10-31T00:31:43.109Z,27.02
2022-10-31T00:32:13.127Z,27.03
2022-10-31T00:32:43.156Z,27.03
2022-10-31T00:33:13.187Z,27.01
2022-10-31T00:33:43.220Z,27.03
2022-10-31T00:34:13.245Z,27.01
2022-10-31T00:34:43.278Z,27.02
2022-10-31T00:35:13.312Z,27.02
2022-10-31T00:35:43.353Z,27.01
2022-10-31T00:36:13.387Z,27.01
2022-10-31T00:36:43.423Z,27.01
2022-10-31T00:37:13.444Z,27.01
2022-10-31T00:37:43.481Z,27.02
2022-10-31T00:38:13.513Z,27.02
2022-10-31T00:38:43.537Z,27.02
2022-10-31T00:39:13.568Z,27.02
2022-10-31T00:39:43.604Z,27.02
2022-10-31T00:40:13.632Z,27.01
2022-10-31T00:40:43.660Z,27.05
2022-10-31T00:41:13.717Z,27.03
2022-10-31T00:41:43.730Z,27.01
2022-10-31T00:42:13.759Z,27.01
2022-10-31T00:42:43.792Z,27.02
2022-10-31T00:43:13.876Z,27.01
2022-10-31T00:43:43.919Z,27.01
2022-10-31T00:44:13.919Z,27.02
2022-10-31T00:44:43.955Z,27.01
2022-10-31T00:45:13.970Z,27.01
2022-10-31T00:45:44.007Z,27.03
2022-10-31T00:46:14.040Z,27.03
2022-10-31T00:46:44.067Z,27.03
2022-10-31T00:47:14.108Z,27.01
2022-10-31T00:47:44.140Z,27.01
2022-10-31T00:48:14.167Z,27.02
2022-10-31T00:48:44.199Z,27.03
2022-10-31T00:49:14.228Z,27.03
2022-10-31T00:49:44.256Z,26.99
2022-10-31T00:50:14.291Z,27.01
2022-10-31T00:50:44.319Z,27.02
2022-10-31T00:51:14.342Z,27.01
2022-10-31T00:51:44.375Z,27.02
2022-10-31T00:52:14.410Z,26.99
2022-10-31T00:52:44.440Z,27.02
2022-10-31T00:53:14.473Z,26.99
2022-10-31T00:53:44.518Z,26.99
2022-10-31T00:54:14.528Z,26.99
2022-10-31T00:54:44.563Z,26.99
2022-10-31T00:55:14.593Z,27.02
2022-10-31T00:55:44.618Z,26.99
2022-10-31T00:56:14.653Z,27.01
2022-10-31T00:56:44.705Z,27.01
2022-10-31T00:57:14.707Z,27.01
2022-10-31T00:57:44.743Z,26.98
2022-10-31T00:58:44.778Z,27.01
2022-10-31T00:59:14.811Z,26.99
2022-10-31T00:59:44.841Z,27.02
2022-10-31T01:00:14.879Z,26.99
2022-10-31T01:00:48.065Z,26.99
2022-10-31T01:01:15.096Z,27.01
2022-10-31T01:01:45.133Z,27.02
2022-10-31T01:02:15.301Z,26.98
2022-10-31T01:02:45.285Z,27.01
2022-10-31T01:03:15.235Z,26.99
2022-10-31T01:03:45.263Z,27.01
2022-10-31T01:04:15.296Z,27.02
2022-10-31T01:04:45.333Z,26.99
2022-10-31T01:05:15.353Z,26.98
2022-10-31T01:05:45.389Z,26.99
2022-10-31T01:06:15.444Z,26.99
2022-10-31T01:06:45.452Z,27.01
2022-10-31T01:07:15.483Z,26.99
2022-10-31T01:07:45.520Z,26.98
2022-10-31T01:08:15.549Z,26.96
2022-10-31T01:08:45.591Z,26.98
2022-10-31T01:09:15.610Z,27.01
2022-10-31T01:09:45.641Z,26.98
2022-10-31T01:10:15.669Z,26.99
2022-10-31T01:10:45.713Z,27.01
2022-10-31T01:11:15.733Z,26.96
2022-10-31T01:11:45.768Z,26.99
2022-10-31T01:12:15.821Z,26.96
2022-10-31T01:12:45.837Z,26.99
2022-10-31T01:13:15.936Z,26.98
2022-10-31T01:13:45.961Z,26.98
2022-10-31T01:14:15.987Z,26.99
2022-10-31T01:14:46.020Z,26.96
2022-10-31T01:15:16.050Z,26.98
2022-10-31T01:15:46.082Z,26.98
2022-10-31T01:16:16.111Z,26.96
2022-10-31T01:16:46.144Z,26.99
2022-10-31T01:17:16.172Z,26.95
2022-10-31T01:17:46.229Z,26.95
2022-10-31T01:18:16.259Z,26.96
2022-10-31T01:18:46.290Z,26.95
2022-10-31T01:19:16.318Z,26.98
2022-10-31T01:19:46.346Z,26.96
2022-10-31T01:20:16.383Z,26.96
2022-10-31T01:20:46.419Z,26.96
2022-10-31T01:21:16.439Z,26.96
2022-10-31T01:21:46.468Z,26.98
2022-10-31T01:22:16.468Z,26.98
2022-10-31T01:22:46.583Z,26.95
2022-10-31T01:23:16.577Z,26.95
2022-10-31T01:23:46.725Z,26.95
2022-10-31T01:24:16.707Z,26.95
2022-10-31T01:24:46.705Z,26.96
2022-10-31T01:25:16.835Z,26.99
2022-10-31T01:25:46.943Z,26.96
2022-10-31T01:26:17.056Z,26.96
2022-10-31T01:26:47.056Z,26.98
2022-10-31T01:27:17.172Z,26.96
2022-10-31T01:27:47.321Z,26.98
2022-10-31T01:28:17.358Z,26.96
2022-10-31T01:28:47.349Z,26.94
2022-10-31T01:29:17.461Z,26.96
2022-10-31T01:29:47.459Z,26.99
2022-10-31T01:30:17.454Z,26.96
2022-10-31T01:30:47.569Z,26.96
2022-10-31T01:31:17.564Z,26.96
2022-10-31T01:31:47.684Z,26.96
2022-10-31T01:32:17.711Z,26.96
2022-10-31T01:32:47.745Z,26.99
2022-10-31T01:33:17.774Z,26.95
2022-10-31T01:33:47.805Z,26.98
2022-10-31T01:34:17.852Z,26.96
2022-10-31T01:34:47.874Z,26.96
2022-10-31T01:35:17.904Z,26.95
2022-10-31T01:35:47.938Z,26.96
2022-10-31T01:36:17.971Z,26.96
2022-10-31T01:36:48.004Z,26.98
2022-10-31T01:37:18.033Z,26.98
2022-10-31T01:37:48.071Z,26.95
2022-10-31T01:38:18.107Z,26.96
2022-10-31T01:38:48.133Z,26.95
2022-10-31T01:39:18.168Z,26.96
2022-10-31T01:39:48.203Z,26.96
2022-10-31T01:40:18.227Z,26.95
2022-10-31T01:40:48.266Z,26.99
2022-10-31T01:41:18.293Z,26.95
2022-10-31T01:41:48.319Z,26.98
2022-10-31T01:42:18.351Z,26.96
2022-10-31T01:42:48.384Z,26.98
2022-10-31T01:43:18.576Z,26.96
2022-10-31T01:43:48.473Z,26.96
2022-10-31T01:44:18.509Z,26.95
2022-10-31T01:44:48.536Z,26.95
2022-10-31T01:45:18.572Z,26.96
2022-10-31T01:45:48.609Z,26.95
2022-10-31T01:46:18.635Z,26.94
2022-10-31T01:46:48.668Z,26.96
2022-10-31T01:47:18.699Z,26.95
2022-10-31T01:47:48.744Z,26.96
2022-10-31T01:48:18.769Z,26.95
2022-10-31T01:48:48.802Z,26.96
2022-10-31T01:49:18.835Z,26.94
2022-10-31T01:49:48.860Z,26.94
2022-10-31T01:50:18.894Z,26.95
2022-10-31T01:50:48.929Z,26.98
2022-10-31T01:51:18.952Z,26.94
2022-10-31T01:51:48.982Z,26.94
2022-10-31T01:52:19.023Z,26.94
2022-10-31T01:52:49.060Z,26.94
2022-10-31T01:53:22.938Z,26.95
2022-10-31T01:53:49.136Z,26.96
2022-10-31T01:54:19.166Z,26.94
2022-10-31T01:54:49.199Z,26.95
2022-10-31T01:55:19.231Z,26.96
2022-10-31T01:55:49.265Z,26.92
2022-10-31T01:56:19.296Z,26.92
2022-10-31T01:56:49.327Z,26.96
2022-10-31T01:57:19.355Z,26.94
2022-10-31T01:57:49.395Z,26.98
2022-10-31T01:58:49.470Z,26.94
2022-10-31T01:59:19.473Z,26.94
2022-10-31T01:59:49.513Z,26.94
2022-10-31T02:00:19.547Z,26.94
2022-10-31T02:00:49.616Z,26.96
2022-10-31T02:01:19.827Z,26.95
2022-10-31T02:01:49.880Z,26.94
2022-10-31T02:02:19.925Z,26.94
2022-10-31T02:02:49.903Z,26.94
2022-10-31T02:03:19.795Z,26.94
2022-10-31T02:03:49.822Z,26.94
2022-10-31T02:04:19.852Z,26.95
2022-10-31T02:04:49.890Z,26.92
2022-10-31T02:05:19.919Z,26.94
2022-10-31T02:05:49.948Z,26.94
2022-10-31T02:06:19.978Z,26.92
2022-10-31T02:06:50.009Z,26.92
2022-10-31T02:07:20.043Z,26.92
2022-10-31T02:07:50.075Z,26.91
2022-10-31T02:08:20.108Z,26.95
2022-10-31T02:08:50.136Z,26.91
2022-10-31T02:09:20.169Z,26.95
2022-10-31T02:09:50.199Z,26.91
2022-10-31T02:10:20.231Z,26.92
2022-10-31T02:10:50.257Z,26.92
2022-10-31T02:11:21.267Z,26.94
2022-10-31T02:11:50.405Z,26.91
2022-10-31T02:12:20.437Z,26.92
2022-10-31T02:12:50.476Z,26.92
2022-10-31T02:13:20.535Z,26.91
2022-10-31T02:13:50.554Z,26.91
2022-10-31T02:14:20.612Z,26.94
2022-10-31T02:14:50.620Z,26.92
2022-10-31T02:15:20.647Z,26.95
2022-10-31T02:15:50.683Z,26.92
2022-10-31T02:16:20.709Z,26.94
2022-10-31T02:16:50.735Z,26.92
2022-10-31T02:17:20.777Z,26.91
2022-10-31T02:17:50.810Z,26.91
2022-10-31T02:18:20.835Z,26.94
2022-10-31T02:18:50.863Z,26.92
2022-10-31T02:19:20.896Z,26.92
2022-10-31T02:19:50.933Z,26.92
2022-10-31T02:20:20.959Z,26.95
2022-10-31T02:20:50.986Z,26.91
2022-10-31T02:21:21.019Z,26.91
2022-10-31T02:21:51.045Z,26.92
2022-10-31T02:22:21.161Z,26.89
2022-10-31T02:22:51.156Z,26.94
2022-10-31T02:23:21.275Z,26.92
2022-10-31T02:23:51.391Z,26.94
2022-10-31T02:24:21.511Z,26.92
2022-10-31T02:24:51.503Z,26.92
2022-10-31T02:25:21.620Z,26.92
2022-10-31T02:25:51.740Z,26.91
2022-10-31T02:26:21.735Z,26.89
2022-10-31T02:26:51.729Z,26.92
2022-10-31T02:27:21.845Z,26.91
2022-10-31T02:27:51.840Z,26.89
2022-10-31T02:28:21.848Z,26.91
2022-10-31T02:28:51.949Z,26.91
2022-10-31T02:29:22.094Z,26.88
2022-10-31T02:29:52.063Z,26.91
2022-10-31T02:30:22.176Z,26.91
2022-10-31T02:30:52.293Z,26.89
2022-10-31T02:31:22.288Z,26.91
2022-10-31T02:31:52.406Z,26.91
2022-10-31T02:32:22.437Z,26.91
2022-10-31T02:32:52.468Z,26.89
2022-10-31T02:33:22.500Z,26.91
2022-10-31T02:33:52.545Z,26.88
2022-10-31T02:34:22.558Z,26.89
2022-10-31T02:34:52.591Z,26.89
2022-10-31T02:35:22.616Z,26.89
2022-10-31T02:35:52.649Z,26.92
2022-10-31T02:36:22.679Z,26.88
2022-10-31T02:36:52.705Z,26.91
2022-10-31T02:37:22.738Z,26.88
2022-10-31T02:37:52.783Z,26.91
2022-10-31T02:38:22.805Z,26.88
2022-10-31T02:38:52.831Z,26.87
2022-10-31T02:39:22.864Z,26.91
2022-10-31T02:39:52.895Z,26.89
2022-10-31T02:40:22.929Z,26.89
2022-10-31T02:40:52.965Z,26.89
2022-10-31T02:41:22.995Z,26.87
2022-10-31T02:41:53.028Z,26.88
2022-10-31T02:42:23.055Z,26.88
2022-10-31T02:42:53.116Z,26.87
2022-10-31T02:43:23.155Z,26.87
2022-10-31T02:43:53.179Z,26.87
2022-10-31T02:44:23.208Z,26.88
2022-10-31T02:44:53.279Z,26.88
2022-10-31T02:45:23.269Z,26.87
2022-10-31T02:45:53.300Z,26.88
2022-10-31T02:46:23.331Z,26.91
2022-10-31T02:46:53.357Z,26.89
2022-10-31T02:47:23.395Z,26.89
2022-10-31T02:47:53.422Z,26.88
2022-10-31T02:48:23.458Z,26.88
2022-10-31T02:48:53.496Z,26.87
2022-10-31T02:49:23.531Z,26.88
2022-10-31T02:49:53.568Z,26.91
2022-10-31T02:50:23.593Z,26.87
2022-10-31T02:50:53.622Z,26.88
2022-10-31T02:51:23.659Z,26.88
2022-10-31T02:51:53.690Z,26.88
2022-10-31T02:52:23.727Z,26.88
2022-10-31T02:52:53.767Z,26.87
2022-10-31T02:53:23.802Z,26.88
2022-10-31T02:53:53.833Z,26.88
2022-10-31T02:54:23.869Z,26.87
2022-10-31T02:54:53.896Z,26.87
2022-10-31T02:55:23.926Z,26.88
2022-10-31T02:55:53.952Z,26.88
2022-10-31T02:56:23.987Z,26.88
2022-10-31T02:56:54.018Z,26.85
2022-10-31T02:57:24.046Z,26.87
2022-10-31T02:57:54.178Z,26.88
2022-10-31T02:58:24.100Z,26.91
2022-10-31T02:58:54.105Z,26.89
2022-10-31T02:59:24.136Z,26.88
2022-10-31T02:59:54.165Z,26.88
2022-10-31T03:00:24.212Z,26.88
2022-10-31T03:00:54.269Z,26.88
2022-10-31T03:01:24.465Z,26.88
2022-10-31T03:01:54.623Z,26.88
2022-10-31T03:02:24.530Z,26.89
2022-10-31T03:02:54.377Z,26.84
2022-10-31T03:03:24.397Z,26.84
2022-10-31T03:03:54.430Z,26.85
2022-10-31T03:04:24.463Z,26.87
2022-10-31T03:04:54.492Z,26.87
2022-10-31T03:05:24.524Z,26.87
2022-10-31T03:05:54.552Z,26.87
2022-10-31T03:06:24.584Z,26.87
2022-10-31T03:06:54.612Z,26.84
2022-10-31T03:07:24.645Z,26.87
2022-10-31T03:07:54.680Z,26.85
2022-10-31T03:08:24.710Z,26.87
2022-10-31T03:08:54.739Z,26.87
2022-10-31T03:09:24.774Z,26.85
2022-10-31T03:09:54.808Z,26.85
2022-10-31T03:10:24.834Z,26.84
2022-10-31T03:10:54.867Z,26.85
2022-10-31T03:11:24.900Z,26.85
2022-10-31T03:11:54.932Z,26.82
2022-10-31T03:12:24.969Z,26.87
2022-10-31T03:12:55.012Z,26.87
2022-10-31T03:13:25.051Z,26.85
2022-10-31T03:13:55.076Z,26.84
2022-10-31T03:14:25.116Z,26.84
2022-10-31T03:14:55.139Z,26.85
2022-10-31T03:15:25.177Z,26.84
2022-10-31T03:15:55.226Z,26.85
2022-10-31T03:16:25.238Z,26.85
2022-10-31T03:16:55.262Z,26.85
2022-10-31T03:17:25.326Z,26.84
2022-10-31T03:17:55.370Z,26.84
2022-10-31T03:18:25.393Z,26.85
2022-10-31T03:18:55.427Z,26.84
2022-10-31T03:19:25.467Z,26.84
2022-10-31T03:19:55.492Z,26.84
2022-10-31T03:20:25.522Z,26.84
2022-10-31T03:20:55.556Z,26.85
2022-10-31T03:21:25.588Z,26.82
2022-10-31T03:21:55.609Z,26.84
2022-10-31T03:22:25.738Z,26.84
2022-10-31T03:22:55.733Z,26.84
2022-10-31T03:23:25.852Z,26.84
2022-10-31T03:23:55.849Z,26.82
2022-10-31T03:24:25.843Z,26.81
2022-10-31T03:24:55.962Z,26.84
2022-10-31T03:25:25.960Z,26.82
2022-10-31T03:25:55.953Z,26.84
2022-10-31T03:26:26.072Z,26.82
2022-10-31T03:26:56.188Z,26.82
2022-10-31T03:27:26.202Z,26.82
2022-10-31T03:27:56.329Z,26.84
2022-10-31T03:28:26.222Z,26.84
2022-10-31T03:28:56.216Z,26.84
2022-10-31T03:29:26.336Z,26.82
2022-10-31T03:29:56.456Z,26.84
2022-10-31T03:30:26.451Z,26.82
2022-10-31T03:30:56.447Z,26.82
2022-10-31T03:31:26.589Z,26.81
2022-10-31T03:31:56.565Z,26.81
2022-10-31T03:32:26.612Z,26.82
2022-10-31T03:32:56.769Z,26.79
2022-10-31T03:33:26.745Z,26.79
2022-10-31T03:33:56.775Z,26.84
2022-10-31T03:34:26.803Z,26.81
2022-10-31T03:34:56.835Z,26.81
2022-10-31T03:35:26.869Z,26.82
2022-10-31T03:35:56.914Z,26.81
2022-10-31T03:36:26.946Z,26.81
2022-10-31T03:36:56.983Z,26.79
2022-10-31T03:37:27.027Z,26.79
2022-10-31T03:37:57.055Z,26.79
2022-10-31T03:38:27.091Z,26.79
2022-10-31T03:38:57.122Z,26.81
2022-10-31T03:39:27.159Z,26.81
2022-10-31T03:39:57.187Z,26.82
2022-10-31T03:40:27.223Z,26.79
2022-10-31T03:40:57.251Z,26.81
2022-10-31T03:41:27.289Z,26.81
2022-10-31T03:41:57.329Z,26.82
2022-10-31T03:42:27.372Z,26.81
2022-10-31T03:42:57.635Z,26.79
2022-10-31T03:43:27.443Z,26.82
2022-10-31T03:43:57.474Z,26.82
2022-10-31T03:44:27.501Z,26.81
2022-10-31T03:44:57.527Z,26.81
2022-10-31T03:45:27.570Z,26.79
2022-10-31T03:45:57.598Z,26.79
2022-10-31T03:46:27.630Z,26.81
2022-10-31T03:46:57.684Z,26.79
2022-10-31T03:47:27.705Z,26.79
2022-10-31T03:47:58.220Z,26.79
2022-10-31T03:48:27.836Z,26.82
2022-10-31T03:48:57.870Z,26.78
2022-10-31T03:49:27.905Z,26.81
2022-10-31T03:49:57.939Z,26.78
2022-10-31T03:50:27.976Z,26.78
2022-10-31T03:50:58.006Z,26.78
2022-10-31T03:51:28.039Z,26.79
2022-10-31T03:51:58.079Z,26.81
2022-10-31T03:52:28.119Z,26.78
2022-10-31T03:52:58.149Z,26.79
2022-10-31T03:53:28.190Z,26.79
2022-10-31T03:53:58.210Z,26.81
2022-10-31T03:54:28.241Z,26.78
2022-10-31T03:54:58.276Z,26.79
2022-10-31T03:55:28.308Z,26.78
2022-10-31T03:55:58.336Z,26.78
2022-10-31T03:56:28.370Z,26.78
2022-10-31T03:56:58.400Z,26.79
2022-10-31T03:57:28.445Z,26.81
2022-10-31T03:57:58.921Z,26.77
2022-10-31T03:58:28.562Z,26.79
2022-10-31T03:58:58.591Z,26.78
2022-10-31T03:59:28.619Z,26.78
2022-10-31T03:59:58.653Z,26.81
2022-10-31T04:00:28.684Z,26.79
2022-10-31T04:00:58.772Z,26.78
2022-10-31T04:01:28.936Z,26.79
2022-10-31T04:01:59.026Z,26.79
2022-10-31T04:02:29.118Z,26.78
2022-10-31T04:02:59.402Z,26.78
2022-10-31T04:03:29.050Z,26.78
2022-10-31T04:03:59.082Z,26.79
2022-10-31T04:04:29.115Z,26.81
2022-10-31T04:04:59.145Z,26.79
2022-10-31T04:05:29.179Z,26.79
2022-10-31T04:05:59.211Z,26.78
2022-10-31T04:06:29.242Z,26.81
2022-10-31T04:06:59.273Z,26.79
2022-10-31T04:07:29.328Z,26.79
2022-10-31T04:07:59.353Z,26.79
2022-10-31T04:08:29.384Z,26.82
2022-10-31T04:08:59.417Z,26.84
2022-10-31T04:09:29.450Z,26.81
2022-10-31T04:09:59.484Z,26.84
2022-10-31T04:10:32.881Z,26.85
2022-10-31T04:10:59.505Z,26.84
2022-10-31T04:11:29.540Z,26.85
2022-10-31T04:11:59.568Z,26.87
2022-10-31T04:12:29.613Z,26.87
2022-10-31T04:12:59.955Z,26.88
2022-10-31T04:13:29.696Z,26.87
2022-10-31T04:13:59.724Z,26.88
2022-10-31T04:14:29.752Z,26.87
2022-10-31T04:14:59.781Z,26.89
2022-10-31T04:15:29.808Z,26.88
2022-10-31T04:15:59.842Z,26.85
2022-10-31T04:16:29.873Z,26.89
2022-10-31T04:16:59.903Z,26.88
2022-10-31T04:17:30.019Z,26.88
2022-10-31T04:18:00.406Z,26.89
2022-10-31T04:18:30.112Z,26.91
2022-10-31T04:19:00.145Z,26.89
2022-10-31T04:19:30.183Z,26.89
2022-10-31T04:20:00.222Z,26.89
2022-10-31T04:20:30.248Z,26.91
2022-10-31T04:21:00.275Z,26.91
2022-10-31T04:21:30.304Z,26.91
2022-10-31T04:22:00.324Z,26.94
2022-10-31T04:22:30.328Z,26.89
2022-10-31T04:23:00.317Z,26.91
2022-10-31T04:23:30.433Z,26.92
2022-10-31T04:24:00.553Z,26.92
2022-10-31T04:24:30.663Z,26.92
2022-10-31T04:25:00.781Z,26.94
2022-10-31T04:25:30.775Z,26.91
2022-10-31T04:26:00.889Z,26.94
2022-10-31T04:26:31.004Z,26.92
2022-10-31T04:27:01.001Z,26.91
2022-10-31T04:27:31.126Z,26.95
2022-10-31T04:28:01.604Z,26.95
2022-10-31T04:28:31.168Z,26.94
2022-10-31T04:29:01.285Z,26.95
2022-10-31T04:29:31.405Z,26.94
2022-10-31T04:30:01.523Z,26.94
2022-10-31T04:30:31.512Z,26.95
2022-10-31T04:31:01.629Z,26.91
2022-10-31T04:31:31.625Z,26.92
2022-10-31T04:32:01.645Z,26.92
2022-10-31T04:32:31.672Z,26.91
2022-10-31T04:33:02.197Z,26.94
2022-10-31T04:33:31.704Z,26.92
2022-10-31T04:34:01.731Z,26.92
2022-10-31T04:34:31.762Z,26.92
2022-10-31T04:35:01.807Z,26.92
2022-10-31T04:35:31.831Z,26.91
2022-10-31T04:36:01.864Z,26.92
2022-10-31T04:36:31.894Z,26.92
2022-10-31T04:37:01.928Z,26.91
2022-10-31T04:37:31.961Z,26.89
2022-10-31T04:38:01.995Z,26.91
2022-10-31T04:38:32.025Z,26.92
2022-10-31T04:39:02.058Z,26.92
2022-10-31T04:39:32.088Z,26.92
2022-10-31T04:40:02.119Z,26.92
2022-10-31T04:40:32.150Z,26.91
2022-10-31T04:41:02.182Z,26.91
2022-10-31T04:41:32.211Z,26.92
2022-10-31T04:42:02.244Z,26.91
2022-10-31T04:42:32.276Z,26.92
2022-10-31T04:43:02.683Z,26.89
2022-10-31T04:43:32.321Z,26.91
2022-10-31T04:44:02.353Z,26.92
2022-10-31T04:44:32.379Z,26.88
2022-10-31T04:45:02.407Z,26.91
2022-10-31T04:45:32.440Z,26.91
2022-10-31T04:46:02.469Z,26.88
2022-10-31T04:46:32.495Z,26.91
2022-10-31T04:47:02.529Z,26.89
2022-10-31T04:47:32.562Z,26.92
2022-10-31T04:48:03.067Z,26.89
2022-10-31T04:48:32.639Z,26.89
2022-10-31T04:49:02.655Z,26.88
2022-10-31T04:49:32.688Z,26.92
2022-10-31T04:50:02.719Z,26.91
2022-10-31T04:50:32.750Z,26.91
2022-10-31T04:51:02.782Z,26.91
2022-10-31T04:51:32.810Z,26.89
2022-10-31T04:52:02.844Z,26.94
2022-10-31T04:52:32.874Z,26.91
2022-10-31T04:53:02.906Z,26.91
2022-10-31T04:53:32.940Z,26.94
2022-10-31T04:54:02.970Z,26.92
2022-10-31T04:54:33.002Z,26.94
2022-10-31T04:55:03.037Z,26.92
2022-10-31T04:55:33.064Z,26.94
2022-10-31T04:56:03.095Z,26.94
2022-10-31T04:56:33.134Z,26.94
2022-10-31T04:57:03.163Z,26.94
2022-10-31T04:57:33.199Z,26.94
2022-10-31T04:58:03.749Z,26.94
2022-10-31T04:58:33.280Z,26.95
2022-10-31T04:59:03.324Z,26.98
2022-10-31T04:59:33.370Z,26.98
2022-10-31T05:00:03.392Z,26.99
2022-10-31T05:00:33.418Z,26.98
2022-10-31T05:01:03.712Z,26.96
2022-10-31T05:01:33.819Z,26.98
2022-10-31T05:02:03.844Z,26.98
2022-10-31T05:02:33.719Z,27.01
2022-10-31T05:03:04.040Z,27.02
2022-10-31T05:03:33.835Z,27.01
2022-10-31T05:04:03.892Z,27.01
2022-10-31T05:04:33.902Z,27.03
2022-10-31T05:05:03.929Z,27.02
2022-10-31T05:05:33.963Z,27.01
2022-10-31T05:06:04.012Z,27.03
2022-10-31T05:06:34.028Z,27.05
2022-10-31T05:07:04.055Z,27.05
2022-10-31T05:07:34.091Z,27.06
2022-10-31T05:08:04.121Z,27.07
2022-10-31T05:08:34.151Z,27.07
2022-10-31T05:09:04.183Z,27.10
2022-10-31T05:09:34.212Z,27.09
2022-10-31T05:10:04.244Z,27.09
2022-10-31T05:10:34.274Z,27.09
2022-10-31T05:11:04.773Z,27.10
2022-10-31T05:11:34.329Z,27.10
2022-10-31T05:12:04.364Z,27.09
2022-10-31T05:12:34.396Z,27.10
2022-10-31T05:13:05.087Z,27.10
2022-10-31T05:13:34.543Z,27.13
2022-10-31T05:14:04.570Z,27.12
2022-10-31T05:14:34.597Z,27.13
2022-10-31T05:15:04.637Z,27.12
2022-10-31T05:15:34.663Z,27.13
2022-10-31T05:16:04.699Z,27.13
2022-10-31T05:16:34.731Z,27.13
2022-10-31T05:17:04.778Z,27.15
2022-10-31T05:17:34.815Z,27.15
2022-10-31T05:18:05.021Z,27.16
2022-10-31T05:18:34.914Z,27.16
2022-10-31T05:19:04.950Z,27.17
2022-10-31T05:19:35.006Z,27.19
2022-10-31T05:20:05.010Z,27.16
2022-10-31T05:20:35.041Z,27.20
2022-10-31T05:21:05.071Z,27.17
2022-10-31T05:21:35.101Z,27.19
2022-10-31T05:22:05.123Z,27.20
2022-10-31T05:22:35.119Z,27.20
2022-10-31T05:23:05.253Z,27.20
2022-10-31T05:23:35.243Z,27.22
2022-10-31T05:24:05.244Z,27.22
2022-10-31T05:24:35.362Z,27.22
2022-10-31T05:25:05.482Z,27.20
2022-10-31T05:25:35.596Z,27.22
2022-10-31T05:26:05.719Z,27.20
2022-10-31T05:26:35.834Z,27.20
2022-10-31T05:27:05.838Z,27.23
2022-10-31T05:27:35.830Z,27.23
2022-10-31T05:28:05.950Z,27.26
2022-10-31T05:28:35.948Z,27.23
2022-10-31T05:29:05.943Z,27.24
2022-10-31T05:29:36.057Z,27.24
2022-10-31T05:30:06.199Z,27.23
2022-10-31T05:30:36.179Z,27.26
2022-10-31T05:31:06.292Z,27.26
2022-10-31T05:31:36.409Z,27.26
2022-10-31T05:32:06.429Z,27.26
2022-10-31T05:32:36.456Z,27.27
2022-10-31T05:33:06.492Z,27.27
2022-10-31T05:33:36.528Z,27.27
2022-10-31T05:34:06.558Z,27.29
2022-10-31T05:34:36.591Z,27.30
2022-10-31T05:35:06.645Z,27.27
2022-10-31T05:35:36.654Z,27.29
2022-10-31T05:36:06.686Z,27.30
2022-10-31T05:36:36.723Z,27.30
2022-10-31T05:37:06.743Z,27.27
2022-10-31T05:37:36.778Z,27.30
2022-10-31T05:38:06.807Z,27.30
2022-10-31T05:38:36.831Z,27.32
2022-10-31T05:39:06.862Z,27.29
2022-10-31T05:39:36.894Z,27.32
2022-10-31T05:40:08.373Z,27.32
2022-10-31T05:40:36.952Z,27.30
2022-10-31T05:41:06.981Z,27.33
2022-10-31T05:41:37.006Z,27.34
2022-10-31T05:42:07.051Z,27.33
2022-10-31T05:42:37.071Z,27.33
2022-10-31T05:43:07.100Z,27.34
2022-10-31T05:43:37.138Z,27.34
2022-10-31T05:44:07.173Z,27.34
2022-10-31T05:44:37.195Z,27.34
2022-10-31T05:45:07.230Z,27.34
2022-10-31T05:45:37.261Z,27.36
2022-10-31T05:46:07.287Z,27.39
2022-10-31T05:46:37.324Z,27.37
2022-10-31T05:47:07.353Z,27.36
2022-10-31T05:47:37.378Z,27.34
2022-10-31T05:48:07.414Z,27.37
2022-10-31T05:48:37.445Z,27.36
2022-10-31T05:49:07.475Z,27.39
2022-10-31T05:49:37.508Z,27.40
2022-10-31T05:50:07.543Z,27.39
2022-10-31T05:50:37.589Z,27.37
2022-10-31T05:51:07.599Z,27.40
2022-10-31T05:51:37.649Z,27.40
2022-10-31T05:52:07.684Z,27.41
2022-10-31T05:52:37.711Z,27.39
2022-10-31T05:53:07.752Z,27.40
2022-10-31T05:53:37.778Z,27.43
2022-10-31T05:54:10.766Z,27.41
2022-10-31T05:54:37.860Z,27.44
2022-10-31T05:55:07.904Z,27.41
2022-10-31T05:55:37.918Z,27.43
2022-10-31T05:56:07.949Z,27.43
2022-10-31T05:56:37.994Z,27.43
2022-10-31T05:57:08.036Z,27.44
2022-10-31T05:57:38.059Z,27.41
2022-10-31T05:58:08.089Z,27.47
2022-10-31T05:58:38.115Z,27.44
2022-10-31T05:59:08.148Z,27.46
2022-10-31T05:59:38.179Z,27.46
2022-10-31T06:00:08.207Z,27.46
2022-10-31T06:00:38.238Z,27.49
2022-10-31T06:01:08.314Z,27.47
2022-10-31T06:01:38.551Z,27.47
2022-10-31T06:02:08.427Z,27.49
2022-10-31T06:02:38.456Z,27.47
2022-10-31T06:03:38.668Z,27.50
2022-10-31T06:04:08.701Z,27.47
2022-10-31T06:04:38.805Z,27.47
2022-10-31T06:05:08.935Z,27.50
2022-10-31T06:05:38.889Z,27.47
2022-10-31T06:06:08.940Z,27.47
2022-10-31T06:06:39.039Z,27.47
2022-10-31T06:07:09.077Z,27.49
2022-10-31T06:07:39.102Z,27.49
2022-10-31T06:08:09.133Z,27.47
2022-10-31T06:08:39.171Z,27.49
2022-10-31T06:09:09.198Z,27.46
2022-10-31T06:09:39.222Z,27.49
2022-10-31T06:10:09.261Z,27.50
2022-10-31T06:10:39.287Z,27.47
2022-10-31T06:11:09.310Z,27.47
2022-10-31T06:11:39.358Z,27.51
2022-10-31T06:12:09.386Z,27.49
2022-10-31T06:12:39.413Z,27.47
2022-10-31T06:13:09.448Z,27.50
2022-10-31T06:13:39.491Z,27.47
2022-10-31T06:14:09.531Z,27.50
2022-10-31T06:14:39.562Z,27.47
2022-10-31T06:15:09.597Z,27.50
2022-10-31T06:15:39.621Z,27.49
2022-10-31T06:16:09.660Z,27.47
2022-10-31T06:16:39.715Z,27.49
2022-10-31T06:17:09.749Z,27.49
2022-10-31T06:17:39.783Z,27.47
2022-10-31T06:18:09.816Z,27.46
2022-10-31T06:18:39.861Z,27.47
2022-10-31T06:19:09.902Z,27.49
2022-10-31T06:19:40.045Z,27.47
2022-10-31T06:20:09.989Z,27.46
2022-10-31T06:20:40.011Z,27.46
2022-10-31T06:21:12.448Z,27.47
2022-10-31T06:21:40.189Z,27.46
2022-10-31T06:22:10.184Z,27.43
2022-10-31T06:22:40.177Z,27.44
2022-10-31T06:23:10.293Z,27.46
2022-10-31T06:23:40.408Z,27.47
2022-10-31T06:24:10.527Z,27.49
2022-10-31T06:24:40.522Z,27.46
2022-10-31T06:25:10.637Z,27.47
2022-10-31T06:25:40.755Z,27.46
2022-10-31T06:26:10.761Z,27.47
2022-10-31T06:26:40.876Z,27.46
2022-10-31T06:27:10.871Z,27.43
2022-10-31T06:27:40.998Z,27.46
2022-10-31T06:28:10.987Z,27.49